sensor_id;sensor_type;location;lat;lon;timestamp;pressure;altitude;pressure_sealevel;temperature;humidity
21588;BME280;10956;48.878;13.316;2023-12-20T00:02:08;94062.31;;;2.79;100.00
21588;BME280;10956;48.878;13.316;2023-12-20T00:04:33;94055.66;;;2.83;100.00
21588;BME280;10956;48.878;13.316;2023-12-20T00:06:59;94056.81;;;2.87;100.00
21588;BME280;10956;48.878;13.316;2023-12-20T00:09:24;94048.31;;;2.92;100.00
21588;BME280;10956;48.878;13.316;2023-12-20T00:11:49;94049.22;;;2.86;100.00
21588;BME280;10956;48.878;13.316;2023-12-20T00:14:15;94040.03;;;2.83;100.00
21588;BME280;10956;48.878;13.316;2023-12-20T00:16:40;94044.22;;;2.84;100.00
21588;BME280;10956;48.878;13.316;2023-12-20T00:19:05;94052.59;;;2.86;100.00
21588;BME280;10956;48.878;13.316;2023-12-20T00:21:31;94049.66;;;2.83;100.00
21588;BME280;10956;48.878;13.316;2023-12-20T00:23:57;94051.47;;;2.82;100.00
21588;BME280;10956;48.878;13.316;2023-12-20T00:26:22;94055.66;;;2.83;100.00
21588;BME280;10956;48.878;13.316;2023-12-20T00:28:47;94052.91;;;2.78;100.00
21588;BME280;10956;48.878;13.316;2023-12-20T00:31:13;94046.78;;;2.73;100.00
21588;BME280;10956;48.878;13.316;2023-12-20T00:33:38;94034.22;;;2.70;100.00
21588;BME280;10956;48.878;13.316;2023-12-20T00:36:05;94029.03;;;2.70;100.00
21588;BME280;10956;48.878;13.316;2023-12-20T00:38:30;94025.31;;;2.77;100.00
21588;BME280;10956;48.878;13.316;2023-12-20T00:40:56;94026.91;;;2.78;100.00
21588;BME280;10956;48.878;13.316;2023-12-20T00:43:21;94023.97;;;2.86;100.00
21588;BME280;10956;48.878;13.316;2023-12-20T00:45:47;94020.81;;;2.84;100.00
21588;BME280;10956;48.878;13.316;2023-12-20T00:48:12;94039.34;;;2.76;100.00
21588;BME280;10956;48.878;13.316;2023-12-20T00:50:37;94032.75;;;2.74;100.00
21588;BME280;10956;48.878;13.316;2023-12-20T00:53:03;94035.59;;;2.72;100.00
21588;BME280;10956;48.878;13.316;2023-12-20T00:55:28;94033.44;;;2.69;100.00
21588;BME280;10956;48.878;13.316;2023-12-20T00:57:54;94037.75;;;2.75;100.00
21588;BME280;10956;48.878;13.316;2023-12-20T01:00:19;94037.03;;;2.68;100.00
21588;BME280;10956;48.878;13.316;2023-12-20T01:02:45;94052.66;;;2.68;100.00
21588;BME280;10956;48.878;13.316;2023-12-20T01:05:11;94040.66;;;2.67;100.00
21588;BME280;10956;48.878;13.316;2023-12-20T01:07:37;94040.22;;;2.70;100.00
21588;BME280;10956;48.878;13.316;2023-12-20T01:10:03;94038.41;;;2.71;100.00
21588;BME280;10956;48.878;13.316;2023-12-20T01:12:28;94033.88;;;2.66;100.00
21588;BME280;10956;48.878;13.316;2023-12-20T01:14:53;94037.47;;;2.65;100.00
21588;BME280;10956;48.878;13.316;2023-12-20T01:17:19;94051.59;;;2.57;100.00
21588;BME280;10956;48.878;13.316;2023-12-20T01:19:44;94032.16;;;2.60;100.00
21588;BME280;10956;48.878;13.316;2023-12-20T01:22:10;94020.28;;;2.64;100.00
21588;BME280;10956;48.878;13.316;2023-12-20T01:24:35;94028.75;;;2.59;100.00
21588;BME280;10956;48.878;13.316;2023-12-20T01:27:00;94030.13;;;2.62;100.00
21588;BME280;10956;48.878;13.316;2023-12-20T01:29:26;94030.69;;;2.64;100.00
21588;BME280;10956;48.878;13.316;2023-12-20T01:31:51;94034.53;;;2.62;100.00
21588;BME280;10956;48.878;13.316;2023-12-20T01:34:17;94015.88;;;2.65;100.00
21588;BME280;10956;48.878;13.316;2023-12-20T01:36:42;94021.53;;;2.62;100.00
21588;BME280;10956;48.878;13.316;2023-12-20T01:39:08;94014.38;;;2.57;100.00
21588;BME280;10956;48.878;13.316;2023-12-20T01:41:33;94022.31;;;2.62;100.00
21588;BME280;10956;48.878;13.316;2023-12-20T01:43:59;94022.19;;;2.57;100.00
21588;BME280;10956;48.878;13.316;2023-12-20T01:46:24;94021.59;;;2.55;100.00
21588;BME280;10956;48.878;13.316;2023-12-20T01:48:51;94014.38;;;2.57;100.00
21588;BME280;10956;48.878;13.316;2023-12-20T01:51:16;93998.31;;;2.60;100.00
21588;BME280;10956;48.878;13.316;2023-12-20T01:53:43;94009.19;;;2.57;100.00
21588;BME280;10956;48.878;13.316;2023-12-20T01:56:09;94001.06;;;2.65;100.00
21588;BME280;10956;48.878;13.316;2023-12-20T01:58:39;94003.09;;;2.63;100.00
21588;BME280;10956;48.878;13.316;2023-12-20T02:01:07;93991.09;;;2.62;100.00
21588;BME280;10956;48.878;13.316;2023-12-20T02:03:33;93988.50;;;2.62;100.00
21588;BME280;10956;48.878;13.316;2023-12-20T02:05:59;93999.47;;;2.64;100.00
21588;BME280;10956;48.878;13.316;2023-12-20T02:08:25;93999.03;;;2.67;100.00
21588;BME280;10956;48.878;13.316;2023-12-20T02:10:50;94006.13;;;2.60;100.00
21588;BME280;10956;48.878;13.316;2023-12-20T02:13:16;94003.97;;;2.57;100.00
21588;BME280;10956;48.878;13.316;2023-12-20T02:15:41;93999.22;;;2.54;100.00
21588;BME280;10956;48.878;13.316;2023-12-20T02:18:08;93970.03;;;2.52;100.00
21588;BME280;10956;48.878;13.316;2023-12-20T02:20:34;93964.38;;;2.55;100.00
21588;BME280;10956;48.878;13.316;2023-12-20T02:22:59;93969.16;;;2.58;100.00
21588;BME280;10956;48.878;13.316;2023-12-20T02:25:25;93968.69;;;2.61;100.00
21588;BME280;10956;48.878;13.316;2023-12-20T02:27:50;93964.63;;;2.65;100.00
21588;BME280;10956;48.878;13.316;2023-12-20T02:30:16;93957.84;;;2.64;100.00
21588;BME280;10956;48.878;13.316;2023-12-20T02:32:41;93953.53;;;2.58;100.00
21588;BME280;10956;48.878;13.316;2023-12-20T02:35:07;93946.63;;;2.52;100.00
21588;BME280;10956;48.878;13.316;2023-12-20T02:37:33;93945.03;;;2.51;100.00
21588;BME280;10956;48.878;13.316;2023-12-20T02:39:58;93936.22;;;2.52;100.00
21588;BME280;10956;48.878;13.316;2023-12-20T02:42:24;93928.84;;;2.49;100.00
21588;BME280;10956;48.878;13.316;2023-12-20T02:44:49;93929.66;;;2.49;100.00
21588;BME280;10956;48.878;13.316;2023-12-20T02:47:14;93932.03;;;2.51;100.00
21588;BME280;10956;48.878;13.316;2023-12-20T02:49:40;93935.19;;;2.53;100.00
21588;BME280;10956;48.878;13.316;2023-12-20T02:52:05;93939.97;;;2.56;100.00
21588;BME280;10956;48.878;13.316;2023-12-20T02:54:31;93930.69;;;2.60;100.00
21588;BME280;10956;48.878;13.316;2023-12-20T02:56:56;93940.66;;;2.63;100.00
21588;BME280;10956;48.878;13.316;2023-12-20T02:59:21;93927.97;;;2.55;100.00
21588;BME280;10956;48.878;13.316;2023-12-20T03:01:47;93924.78;;;2.53;100.00
21588;BME280;10956;48.878;13.316;2023-12-20T03:04:12;93923.22;;;2.52;100.00
21588;BME280;10956;48.878;13.316;2023-12-20T03:06:38;93929.09;;;2.59;100.00
21588;BME280;10956;48.878;13.316;2023-12-20T03:09:04;93909.53;;;2.56;100.00
21588;BME280;10956;48.878;13.316;2023-12-20T03:11:29;93909.31;;;2.58;100.00
21588;BME280;10956;48.878;13.316;2023-12-20T03:13:55;93907.72;;;2.57;100.00
21588;BME280;10956;48.878;13.316;2023-12-20T03:16:21;93901.97;;;2.55;100.00
21588;BME280;10956;48.878;13.316;2023-12-20T03:18:46;93894.16;;;2.55;100.00
21588;BME280;10956;48.878;13.316;2023-12-20T03:21:11;93893.13;;;2.56;100.00
21588;BME280;10956;48.878;13.316;2023-12-20T03:23:37;93901.50;;;2.58;100.00
21588;BME280;10956;48.878;13.316;2023-12-20T03:26:03;93902.09;;;2.60;100.00
21588;BME280;10956;48.878;13.316;2023-12-20T03:28:29;93896.88;;;2.60;100.00
21588;BME280;10956;48.878;13.316;2023-12-20T03:30:55;93897.00;;;2.65;100.00
21588;BME280;10956;48.878;13.316;2023-12-20T03:33:20;93895.97;;;2.66;100.00
21588;BME280;10956;48.878;13.316;2023-12-20T03:35:45;93889.06;;;2.60;100.00
21588;BME280;10956;48.878;13.316;2023-12-20T03:38:11;93888.28;;;2.59;100.00
21588;BME280;10956;48.878;13.316;2023-12-20T03:40:36;93891.69;;;2.60;100.00
21588;BME280;10956;48.878;13.316;2023-12-20T03:43:02;93902.19;;;2.65;100.00
21588;BME280;10956;48.878;13.316;2023-12-20T03:45:27;93897.78;;;2.66;100.00
21588;BME280;10956;48.878;13.316;2023-12-20T03:47:53;93893.81;;;2.63;100.00
21588;BME280;10956;48.878;13.316;2023-12-20T03:50:26;93889.75;;;2.67;100.00
21588;BME280;10956;48.878;13.316;2023-12-20T03:52:52;93887.38;;;2.66;100.00
21588;BME280;10956;48.878;13.316;2023-12-20T03:55:17;93882.53;;;2.69;100.00
21588;BME280;10956;48.878;13.316;2023-12-20T03:57:43;93881.97;;;2.67;100.00
21588;BME280;10956;48.878;13.316;2023-12-20T04:00:09;93877.78;;;2.66;100.00
21588;BME280;10956;48.878;13.316;2023-12-20T04:02:39;93880.94;;;2.68;100.00
21588;BME280;10956;48.878;13.316;2023-12-20T04:05:06;93882.53;;;2.69;100.00
21588;BME280;10956;48.878;13.316;2023-12-20T04:07:31;93872.13;;;2.69;100.00
21588;BME280;10956;48.878;13.316;2023-12-20T04:09:57;93871.66;;;2.72;100.00
21588;BME280;10956;48.878;13.316;2023-12-20T04:12:22;93866.91;;;2.69;100.00
21588;BME280;10956;48.878;13.316;2023-12-20T04:14:47;93866.91;;;2.69;100.00
21588;BME280;10956;48.878;13.316;2023-12-20T04:17:13;93866.56;;;2.66;100.00
21588;BME280;10956;48.878;13.316;2023-12-20T04:19:41;93875.63;;;2.63;100.00
21588;BME280;10956;48.878;13.316;2023-12-20T04:22:06;93874.03;;;2.62;100.00
21588;BME280;10956;48.878;13.316;2023-12-20T04:24:31;93866.22;;;2.62;100.00
21588;BME280;10956;48.878;13.316;2023-12-20T04:26:57;93866.22;;;2.62;100.00
21588;BME280;10956;48.878;13.316;2023-12-20T04:29:22;93855.81;;;2.62;100.00
21588;BME280;10956;48.878;13.316;2023-12-20T04:31:47;93859.00;;;2.64;100.00
21588;BME280;10956;48.878;13.316;2023-12-20T04:34:13;93867.38;;;2.66;100.00
21588;BME280;10956;48.878;13.316;2023-12-20T04:36:38;93860.69;;;2.70;100.00
21588;BME280;10956;48.878;13.316;2023-12-20T04:39:03;93866.91;;;2.69;100.00
21588;BME280;10956;48.878;13.316;2023-12-20T04:41:29;93860.91;;;2.69;100.00
21588;BME280;10956;48.878;13.316;2023-12-20T04:43:54;93870.09;;;2.71;100.00
21588;BME280;10956;48.878;13.316;2023-12-20T04:46:20;93862.84;;;2.73;100.00
21588;BME280;10956;48.878;13.316;2023-12-20T04:48:45;93876.31;;;2.70;100.00
21588;BME280;10956;48.878;13.316;2023-12-20T04:51:10;93874.28;;;2.72;100.00
21588;BME280;10956;48.878;13.316;2023-12-20T04:53:36;93886.84;;;2.75;100.00
21588;BME280;10956;48.878;13.316;2023-12-20T04:56:01;93877.00;;;2.77;100.00
21588;BME280;10956;48.878;13.316;2023-12-20T04:58:26;93882.19;;;2.77;100.00
21588;BME280;10956;48.878;13.316;2023-12-20T05:00:52;93872.13;;;2.81;100.00
21588;BME280;10956;48.878;13.316;2023-12-20T05:03:17;93870.88;;;2.83;100.00
21588;BME280;10956;48.878;13.316;2023-12-20T05:05:43;93867.50;;;2.83;100.00
21588;BME280;10956;48.878;13.316;2023-12-20T05:08:08;93871.47;;;2.85;100.00
21588;BME280;10956;48.878;13.316;2023-12-20T05:10:33;93879.50;;;2.84;100.00
21588;BME280;10956;48.878;13.316;2023-12-20T05:12:59;93875.97;;;2.78;100.00
21588;BME280;10956;48.878;13.316;2023-12-20T05:15:25;93880.38;;;2.78;100.00
21588;BME280;10956;48.878;13.316;2023-12-20T05:17:50;93872.34;;;2.79;100.00
21588;BME280;10956;48.878;13.316;2023-12-20T05:20:16;93877.91;;;2.83;100.00
21588;BME280;10956;48.878;13.316;2023-12-20T05:22:41;93888.66;;;2.86;100.00
21588;BME280;10956;48.878;13.316;2023-12-20T05:25:07;93896.56;;;2.91;100.00
21588;BME280;10956;48.878;13.316;2023-12-20T05:27:32;93904.03;;;2.88;100.00
21588;BME280;10956;48.878;13.316;2023-12-20T05:29:57;93900.09;;;2.85;100.00
21588;BME280;10956;48.878;13.316;2023-12-20T05:32:23;93907.31;;;2.83;100.00
21588;BME280;10956;48.878;13.316;2023-12-20T05:34:49;93904.16;;;2.81;100.00
21588;BME280;10956;48.878;13.316;2023-12-20T05:37:14;93914.00;;;2.79;100.00
21588;BME280;10956;48.878;13.316;2023-12-20T05:39:40;93912.84;;;2.75;100.00
21588;BME280;10956;48.878;13.316;2023-12-20T05:42:06;93914.44;;;2.76;100.00
21588;BME280;10956;48.878;13.316;2023-12-20T05:44:32;93916.47;;;2.74;100.00
21588;BME280;10956;48.878;13.316;2023-12-20T05:46:58;93913.31;;;2.72;100.00
21588;BME280;10956;48.878;13.316;2023-12-20T05:49:23;93920.09;;;2.73;100.00
21588;BME280;10956;48.878;13.316;2023-12-20T05:51:49;93925.75;;;2.70;100.00
21588;BME280;10956;48.878;13.316;2023-12-20T05:54:15;93929.81;;;2.66;100.00
21588;BME280;10956;48.878;13.316;2023-12-20T05:56:40;93931.13;;;2.57;100.00
21588;BME280;10956;48.878;13.316;2023-12-20T05:59:06;93936.78;;;2.54;100.00
21588;BME280;10956;48.878;13.316;2023-12-20T06:01:31;93937.00;;;2.52;100.00
21588;BME280;10956;48.878;13.316;2023-12-20T06:03:56;93946.75;;;2.57;100.00
21588;BME280;10956;48.878;13.316;2023-12-20T06:06:23;93949.53;;;2.44;100.00
21588;BME280;10956;48.878;13.316;2023-12-20T06:08:48;93959.81;;;2.39;100.00
21588;BME280;10956;48.878;13.316;2023-12-20T06:11:14;93951.97;;;2.27;100.00
21588;BME280;10956;48.878;13.316;2023-12-20T06:13:40;93956.38;;;2.26;100.00
21588;BME280;10956;48.878;13.316;2023-12-20T06:16:06;93958.84;;;2.21;100.00
21588;BME280;10956;48.878;13.316;2023-12-20T06:18:34;93955.22;;;2.22;100.00
21588;BME280;10956;48.878;13.316;2023-12-20T06:21:00;93957.81;;;2.22;100.00
21588;BME280;10956;48.878;13.316;2023-12-20T06:23:25;93964.81;;;2.22;100.00
21588;BME280;10956;48.878;13.316;2023-12-20T06:25:52;93959.84;;;2.20;100.00
21588;BME280;10956;48.878;13.316;2023-12-20T06:28:17;93959.13;;;2.13;100.00
21588;BME280;10956;48.878;13.316;2023-12-20T06:30:45;93957.53;;;2.12;100.00
21588;BME280;10956;48.878;13.316;2023-12-20T06:33:12;93942.97;;;2.11;100.00
21588;BME280;10956;48.878;13.316;2023-12-20T06:35:38;93950.53;;;2.13;100.00
21588;BME280;10956;48.878;13.316;2023-12-20T06:38:04;93946.78;;;2.09;100.00
21588;BME280;10956;48.878;13.316;2023-12-20T06:40:29;93956.84;;;2.05;100.00
21588;BME280;10956;48.878;13.316;2023-12-20T06:42:55;93959.88;;;2.02;100.00
21588;BME280;10956;48.878;13.316;2023-12-20T06:45:20;93961.75;;;1.95;100.00
21588;BME280;10956;48.878;13.316;2023-12-20T06:47:45;93973.81;;;1.89;100.00
21588;BME280;10956;48.878;13.316;2023-12-20T06:50:11;93973.59;;;1.91;100.00
21588;BME280;10956;48.878;13.316;2023-12-20T06:52:36;93978.78;;;1.91;100.00
21588;BME280;10956;48.878;13.316;2023-12-20T06:55:01;93982.97;;;1.92;100.00
21588;BME280;10956;48.878;13.316;2023-12-20T06:57:27;93980.97;;;1.94;100.00
21588;BME280;10956;48.878;13.316;2023-12-20T06:59:53;93987.75;;;1.95;100.00
21588;BME280;10956;48.878;13.316;2023-12-20T07:02:18;93994.31;;;1.98;100.00
21588;BME280;10956;48.878;13.316;2023-12-20T07:04:44;93996.69;;;1.99;100.00
21588;BME280;10956;48.878;13.316;2023-12-20T07:07:09;93998.28;;;2.00;100.00
21588;BME280;10956;48.878;13.316;2023-12-20T07:09:35;94001.09;;;1.99;100.00
21588;BME280;10956;48.878;13.316;2023-12-20T07:12:00;94003.47;;;2.00;100.00
21588;BME280;10956;48.878;13.316;2023-12-20T07:14:25;94013.81;;;2.07;100.00
21588;BME280;10956;48.878;13.316;2023-12-20T07:16:51;94011.84;;;2.02;100.00
21588;BME280;10956;48.878;13.316;2023-12-20T07:19:16;94022.38;;;2.07;100.00
21588;BME280;10956;48.878;13.316;2023-12-20T07:21:42;94035.38;;;2.07;100.00
21588;BME280;10956;48.878;13.316;2023-12-20T07:24:07;94033.78;;;2.06;100.00
21588;BME280;10956;48.878;13.316;2023-12-20T07:26:33;94033.38;;;2.09;100.00
21588;BME280;10956;48.878;13.316;2023-12-20T07:28:59;94042.47;;;2.18;100.00
21588;BME280;10956;48.878;13.316;2023-12-20T07:31:24;94032.06;;;2.18;100.00
21588;BME280;10956;48.878;13.316;2023-12-20T07:33:50;94031.03;;;2.19;100.00
21588;BME280;10956;48.878;13.316;2023-12-20T07:36:15;94036.81;;;2.21;100.00
21588;BME280;10956;48.878;13.316;2023-12-20T07:38:40;94042.47;;;2.18;100.00
21588;BME280;10956;48.878;13.316;2023-12-20T07:41:12;94038.84;;;2.19;100.00
21588;BME280;10956;48.878;13.316;2023-12-20T07:43:37;94046.66;;;2.19;100.00
21588;BME280;10956;48.878;13.316;2023-12-20T07:46:07;94040.78;;;2.24;100.00
21588;BME280;10956;48.878;13.316;2023-12-20T07:48:36;94041.22;;;2.21;100.00
21588;BME280;10956;48.878;13.316;2023-12-20T07:51:02;94053.44;;;2.20;100.00
21588;BME280;10956;48.878;13.316;2023-12-20T07:53:28;94052.00;;;2.24;100.00
21588;BME280;10956;48.878;13.316;2023-12-20T07:55:53;94049.97;;;2.26;100.00
21588;BME280;10956;48.878;13.316;2023-12-20T07:58:20;94058.34;;;2.29;100.00
21588;BME280;10956;48.878;13.316;2023-12-20T08:00:45;94053.72;;;2.31;100.00
21588;BME280;10956;48.878;13.316;2023-12-20T08:03:10;94053.13;;;2.29;100.00
21588;BME280;10956;48.878;13.316;2023-12-20T08:05:37;94061.94;;;2.28;100.00
21588;BME280;10956;48.878;13.316;2023-12-20T08:08:04;94056.31;;;2.31;100.00
21588;BME280;10956;48.878;13.316;2023-12-20T08:10:30;94072.72;;;2.31;100.00
21588;BME280;10956;48.878;13.316;2023-12-20T08:12:55;94070.47;;;2.35;100.00
21588;BME280;10956;48.878;13.316;2023-12-20T08:15:20;94071.84;;;2.37;100.00
21588;BME280;10956;48.878;13.316;2023-12-20T08:17:46;94077.41;;;2.41;100.00
21588;BME280;10956;48.878;13.316;2023-12-20T08:20:11;94076.91;;;2.32;100.00
21588;BME280;10956;48.878;13.316;2023-12-20T08:22:37;94084.63;;;2.39;100.00
21588;BME280;10956;48.878;13.316;2023-12-20T08:25:02;94093.00;;;2.41;100.00
21588;BME280;10956;48.878;13.316;2023-12-20T08:27:28;94086.22;;;2.40;100.00
21588;BME280;10956;48.878;13.316;2023-12-20T08:29:53;94091.41;;;2.40;100.00
21588;BME280;10956;48.878;13.316;2023-12-20T08:32:19;94086.22;;;2.40;100.00
21588;BME280;10956;48.878;13.316;2023-12-20T08:34:44;94088.53;;;2.48;100.00
21588;BME280;10956;48.878;13.316;2023-12-20T08:37:10;94093.72;;;2.48;100.00
21588;BME280;10956;48.878;13.316;2023-12-20T08:39:35;94091.69;;;2.50;100.00
21588;BME280;10956;48.878;13.316;2023-12-20T08:42:00;94094.44;;;2.55;100.00
21588;BME280;10956;48.878;13.316;2023-12-20T08:44:26;94097.47;;;2.52;100.00
21588;BME280;10956;48.878;13.316;2023-12-20T08:46:51;94099.28;;;2.51;100.00
21588;BME280;10956;48.878;13.316;2023-12-20T08:49:17;94094.88;;;2.52;100.00
21588;BME280;10956;48.878;13.316;2023-12-20T08:51:42;94097.03;;;2.55;100.00
21588;BME280;10956;48.878;13.316;2023-12-20T08:54:08;94095.59;;;2.59;100.00
21588;BME280;10956;48.878;13.316;2023-12-20T08:56:34;94091.09;;;2.66;100.00
21588;BME280;10956;48.878;13.316;2023-12-20T08:58:59;94081.06;;;2.70;100.00
21588;BME280;10956;48.878;13.316;2023-12-20T09:01:24;94081.41;;;2.73;100.00
21588;BME280;10956;48.878;13.316;2023-12-20T09:03:50;94101.00;;;2.76;100.00
21588;BME280;10956;48.878;13.316;2023-12-20T09:06:16;94090.59;;;2.76;100.00
21588;BME280;10956;48.878;13.316;2023-12-20T09:08:41;94086.19;;;2.76;100.00
21588;BME280;10956;48.878;13.316;2023-12-20T09:11:07;94085.72;;;2.79;100.00
21588;BME280;10956;48.878;13.316;2023-12-20T09:13:32;94090.50;;;2.82;100.00
21588;BME280;10956;48.878;13.316;2023-12-20T09:15:58;94079.22;;;2.88;100.00
21588;BME280;10956;48.878;13.316;2023-12-20T09:18:24;94081.69;;;2.83;100.00
21588;BME280;10956;48.878;13.316;2023-12-20T09:20:49;94076.69;;;2.82;100.00
21588;BME280;10956;48.878;13.316;2023-12-20T09:23:15;94083.25;;;2.84;100.00
21588;BME280;10956;48.878;13.316;2023-12-20T09:25:40;94089.63;;;2.88;100.00
21588;BME280;10956;48.878;13.316;2023-12-20T09:28:05;94092.78;;;2.90;100.00
21588;BME280;10956;48.878;13.316;2023-12-20T09:30:31;94087.59;;;2.90;100.00
21588;BME280;10956;48.878;13.316;2023-12-20T09:32:57;94079.34;;;2.94;100.00
21588;BME280;10956;48.878;13.316;2023-12-20T09:35:23;94074.25;;;2.99;100.00
21588;BME280;10956;48.878;13.316;2023-12-20T09:37:49;94077.88;;;2.98;100.00
21588;BME280;10956;48.878;13.316;2023-12-20T09:40:18;94077.63;;;2.87;100.00
21588;BME280;10956;48.878;13.316;2023-12-20T09:42:57;94072.06;;;2.84;100.00
21588;BME280;10956;48.878;13.316;2023-12-20T09:45:23;94084.50;;;2.82;100.00
21588;BME280;10956;48.878;13.316;2023-12-20T09:47:53;94086.09;;;2.83;100.00
21588;BME280;10956;48.878;13.316;2023-12-20T09:50:20;94076.03;;;2.86;100.00
21588;BME280;10956;48.878;13.316;2023-12-20T09:52:50;94072.53;;;2.92;100.00
21588;BME280;10956;48.878;13.316;2023-12-20T09:55:17;94078.31;;;2.95;100.00
21588;BME280;10956;48.878;13.316;2023-12-20T09:57:43;94069.06;;;2.99;100.00
21588;BME280;10956;48.878;13.316;2023-12-20T10:00:09;94063.84;;;2.99;100.00
21588;BME280;10956;48.878;13.316;2023-12-20T10:02:36;94065.44;;;3.00;100.00
21588;BME280;10956;48.878;13.316;2023-12-20T10:05:06;94057.75;;;3.05;100.00
21588;BME280;10956;48.878;13.316;2023-12-20T10:07:34;94041.69;;;3.08;100.00
21588;BME280;10956;48.878;13.316;2023-12-20T10:10:01;94052.44;;;3.11;100.00
21588;BME280;10956;48.878;13.316;2023-12-20T10:12:27;94053.03;;;3.13;100.00
21588;BME280;10956;48.878;13.316;2023-12-20T10:14:52;94055.63;;;3.13;100.00
21588;BME280;10956;48.878;13.316;2023-12-20T10:17:18;94059.59;;;3.16;100.00
21588;BME280;10956;48.878;13.316;2023-12-20T10:19:43;94053.94;;;3.19;100.00
21588;BME280;10956;48.878;13.316;2023-12-20T10:22:10;94048.75;;;3.19;100.00
21588;BME280;10956;48.878;13.316;2023-12-20T10:24:35;94048.25;;;3.10;100.00
21588;BME280;10956;48.878;13.316;2023-12-20T10:27:07;94044.88;;;3.10;100.00
21588;BME280;10956;48.878;13.316;2023-12-20T10:29:36;94043.84;;;3.11;100.00
21588;BME280;10956;48.878;13.316;2023-12-20T10:32:27;94041.25;;;3.11;100.00
21588;BME280;10956;48.878;13.316;2023-12-20T10:34:54;94030.59;;;3.12;100.00
21588;BME280;10956;48.878;13.316;2023-12-20T10:37:20;94043.84;;;3.11;100.00
21588;BME280;10956;48.878;13.316;2023-12-20T10:39:50;94039.22;;;3.13;100.00
21588;BME280;10956;48.878;13.316;2023-12-20T10:42:25;94039.91;;;3.20;100.00
21588;BME280;10956;48.878;13.316;2023-12-20T10:44:52;94036.97;;;3.28;100.00
21588;BME280;10956;48.878;13.316;2023-12-20T10:47:19;94033.00;;;3.26;100.00
21588;BME280;10956;48.878;13.316;2023-12-20T10:49:46;94032.66;;;3.22;100.00
21588;BME280;10956;48.878;13.316;2023-12-20T10:52:12;94023.03;;;3.22;100.00
21588;BME280;10956;48.878;13.316;2023-12-20T10:54:41;94033.81;;;3.26;100.00
21588;BME280;10956;48.878;13.316;2023-12-20T10:57:07;94034.38;;;3.28;100.00
21588;BME280;10956;48.878;13.316;2023-12-20T10:59:33;94032.34;;;3.30;100.00
21588;BME280;10956;48.878;13.316;2023-12-20T11:02:02;94034.28;;;3.35;100.00
21588;BME280;10956;48.878;13.316;2023-12-20T11:04:39;94034.03;;;3.36;100.00
21588;BME280;10956;48.878;13.316;2023-12-20T11:07:29;94025.22;;;3.37;100.00
21588;BME280;10956;48.878;13.316;2023-12-20T11:10:10;94020.00;;;3.37;100.00
21588;BME280;10956;48.878;13.316;2023-12-20T11:15:11;94022.97;;;3.52;100.00
21588;BME280;10956;48.878;13.316;2023-12-20T11:17:39;94024.53;;;3.53;100.00
21588;BME280;10956;48.878;13.316;2023-12-20T11:20:07;94011.63;;;3.59;100.00
21588;BME280;10956;48.878;13.316;2023-12-20T11:22:35;94009.13;;;3.64;100.00
21588;BME280;10956;48.878;13.316;2023-12-20T11:25:08;94013.44;;;3.70;100.00
21588;BME280;10956;48.878;13.316;2023-12-20T11:27:35;94016.63;;;3.72;100.00
21588;BME280;10956;48.878;13.316;2023-12-20T11:30:03;94025.00;;;3.85;100.00
21588;BME280;10956;48.878;13.316;2023-12-20T11:32:34;94023.53;;;3.89;100.00
21588;BME280;10956;48.878;13.316;2023-12-20T11:37:35;94006.38;;;4.05;100.00
21588;BME280;10956;48.878;13.316;2023-12-20T11:42:42;94007.06;;;4.12;100.00
21588;BME280;10956;48.878;13.316;2023-12-20T11:45:11;94004.78;;;4.04;100.00
21588;BME280;10956;48.878;13.316;2023-12-20T11:47:42;94002.88;;;4.00;100.00
21588;BME280;10956;48.878;13.316;2023-12-20T11:50:08;94001.53;;;3.97;100.00
21588;BME280;10956;48.878;13.316;2023-12-20T11:52:33;94000.28;;;3.88;100.00
21588;BME280;10956;48.878;13.316;2023-12-20T11:54:58;94012.09;;;3.79;100.00
21588;BME280;10956;48.878;13.316;2023-12-20T11:57:24;94009.94;;;3.76;100.00
21588;BME280;10956;48.878;13.316;2023-12-20T11:59:50;94008.91;;;3.65;100.00
21588;BME280;10956;48.878;13.316;2023-12-20T12:02:15;94007.78;;;3.73;100.00
21588;BME280;10956;48.878;13.316;2023-12-20T12:04:41;94010.84;;;3.81;100.00
21588;BME280;10956;48.878;13.316;2023-12-20T12:07:07;93991.00;;;3.92;100.00
21588;BME280;10956;48.878;13.316;2023-12-20T12:09:32;93991.19;;;4.02;100.00
21588;BME280;10956;48.878;13.316;2023-12-20T12:11:58;93981.88;;;4.06;100.00
21588;BME280;10956;48.878;13.316;2023-12-20T12:14:24;93991.88;;;4.09;100.00
21588;BME280;10956;48.878;13.316;2023-12-20T12:16:49;93988.25;;;3.99;100.00
21588;BME280;10956;48.878;13.316;2023-12-20T12:19:26;93993.69;;;3.97;100.00
21588;BME280;10956;48.878;13.316;2023-12-20T12:22:08;93993.50;;;3.87;100.00
21588;BME280;10956;48.878;13.316;2023-12-20T12:24:36;93991.56;;;3.82;100.00
21588;BME280;10956;48.878;13.316;2023-12-20T12:27:02;94003.47;;;3.78;100.00
21588;BME280;10956;48.878;13.316;2023-12-20T12:29:28;93986.94;;;3.73;100.00
21588;BME280;10956;48.878;13.316;2023-12-20T12:31:54;93981.59;;;3.79;100.00
21588;BME280;10956;48.878;13.316;2023-12-20T12:34:20;93978.75;;;3.81;100.00
21588;BME280;10956;48.878;13.316;2023-12-20T12:36:45;93971.28;;;3.73;100.00
21588;BME280;10956;48.878;13.316;2023-12-20T12:39:15;93972.97;;;3.79;100.00
21588;BME280;10956;48.878;13.316;2023-12-20T12:41:40;93964.91;;;3.92;100.00
21588;BME280;10956;48.878;13.316;2023-12-20T12:44:06;93966.50;;;3.93;100.00
21588;BME280;10956;48.878;13.316;2023-12-20T12:46:31;93973.31;;;3.94;100.00
21588;BME280;10956;48.878;13.316;2023-12-20T12:48:58;93982.59;;;3.90;100.00
21588;BME280;10956;48.878;13.316;2023-12-20T12:51:23;93982.16;;;3.93;100.00
21588;BME280;10956;48.878;13.316;2023-12-20T12:53:48;93982.81;;;4.00;100.00